sensor_id;sensor_type;location;lat;lon;timestamp;pressure;altitude;pressure_sealevel;temperature;humidity
53270;BME280;39159;45.634;9.420;2022-12-29T00:01:54;99581.41;;;6.51;100.00
53270;BME280;39159;45.634;9.420;2022-12-29T00:04:21;99584.94;;;6.51;100.00
53270;BME280;39159;45.634;9.420;2022-12-29T00:06:46;99577.66;;;6.52;100.00
53270;BME280;39159;45.634;9.420;2022-12-29T00:09:12;99574.63;;;6.48;100.00
53270;BME280;39159;45.634;9.420;2022-12-29T00:11:38;99571.69;;;6.50;100.00
53270;BME280;39159;45.634;9.420;2022-12-29T00:14:04;99566.25;;;6.50;100.00
53270;BME280;39159;45.634;9.420;2022-12-29T00:16:48;99563.25;;;6.51;100.00
53270;BME280;39159;45.634;9.420;2022-12-29T00:19:13;99561.66;;;6.55;100.00
53270;BME280;39159;45.634;9.420;2022-12-29T00:21:58;99554.88;;;6.58;100.00
53270;BME280;39159;45.634;9.420;2022-12-29T00:24:43;99547.81;;;6.57;100.00
53270;BME280;39159;45.634;9.420;2022-12-29T00:27:29;99545.38;;;6.55;100.00
53270;BME280;39159;45.634;9.420;2022-12-29T00:30:15;99541.31;;;6.58;100.00
53270;BME280;39159;45.634;9.420;2022-12-29T00:33:00;99538.34;;;6.59;100.00
53270;BME280;39159;45.634;9.420;2022-12-29T00:35:47;99537.78;;;6.57;100.00
53270;BME280;39159;45.634;9.420;2022-12-29T00:38:16;99538.59;;;6.58;100.00
53270;BME280;39159;45.634;9.420;2022-12-29T00:41:00;99539.13;;;6.55;100.00
53270;BME280;39159;45.634;9.420;2022-12-29T00:43:44;99526.69;;;6.54;100.00
53270;BME280;39159;45.634;9.420;2022-12-29T00:46:28;99515.53;;;6.45;100.00
53270;BME280;39159;45.634;9.420;2022-12-29T00:48:53;99520.38;;;6.38;100.00
53270;BME280;39159;45.634;9.420;2022-12-29T00:51:37;99525.53;;;6.34;100.00
53270;BME280;39159;45.634;9.420;2022-12-29T00:54:03;99524.97;;;6.27;100.00
53270;BME280;39159;45.634;9.420;2022-12-29T00:56:28;99515.72;;;6.23;100.00
53270;BME280;39159;45.634;9.420;2022-12-29T00:58:53;99516.25;;;6.20;100.00
53270;BME280;39159;45.634;9.420;2022-12-29T01:01:19;99510.00;;;6.14;100.00
53270;BME280;39159;45.634;9.420;2022-12-29T01:03:44;99512.16;;;6.12;100.00
53270;BME280;39159;45.634;9.420;2022-12-29T01:06:11;99510.00;;;6.09;100.00
53270;BME280;39159;45.634;9.420;2022-12-29T01:08:37;99499.91;;;6.05;100.00
53270;BME280;39159;45.634;9.420;2022-12-29T01:11:07;99509.13;;;6.04;100.00
53270;BME280;39159;45.634;9.420;2022-12-29T01:13:34;99510.22;;;6.03;100.00
53270;BME280;39159;45.634;9.420;2022-12-29T01:16:00;99517.81;;;6.06;100.00
53270;BME280;39159;45.634;9.420;2022-12-29T01:18:26;99517.56;;;6.07;100.00
53270;BME280;39159;45.634;9.420;2022-12-29T01:21:02;99514.00;;;6.07;100.00
53270;BME280;39159;45.634;9.420;2022-12-29T01:23:28;99515.91;;;6.06;100.00
53270;BME280;39159;45.634;9.420;2022-12-29T01:25:53;99514.56;;;6.09;100.00
53270;BME280;39159;45.634;9.420;2022-12-29T01:28:19;99514.31;;;6.10;100.00
53270;BME280;39159;45.634;9.420;2022-12-29T01:30:45;99513.53;;;6.15;100.00
53270;BME280;39159;45.634;9.420;2022-12-29T01:33:10;99512.72;;;6.19;100.00
53270;BME280;39159;45.634;9.420;2022-12-29T01:35:35;99520.88;;;6.25;100.00
53270;BME280;39159;45.634;9.420;2022-12-29T01:38:01;99523.31;;;6.26;100.00
53270;BME280;39159;45.634;9.420;2022-12-29T01:40:26;99519.53;;;6.27;100.00
53270;BME280;39159;45.634;9.420;2022-12-29T01:42:53;99518.94;;;6.20;100.00
53270;BME280;39159;45.634;9.420;2022-12-29T01:45:18;99525.47;;;6.19;100.00
53270;BME280;39159;45.634;9.420;2022-12-29T01:47:55;99534.16;;;6.21;100.00
53270;BME280;39159;45.634;9.420;2022-12-29T01:50:25;99533.06;;;6.22;100.00
53270;BME280;39159;45.634;9.420;2022-12-29T01:55:26;99533.34;;;6.26;100.00
53270;BME280;39159;45.634;9.420;2022-12-29T01:57:53;99529.84;;;6.30;100.00
53270;BME280;39159;45.634;9.420;2022-12-29T02:00:21;99523.31;;;6.31;100.00
53270;BME280;39159;45.634;9.420;2022-12-29T02:02:52;99517.38;;;6.29;100.00
53270;BME280;39159;45.634;9.420;2022-12-29T02:08:08;99514.38;;;6.31;100.00
53270;BME280;39159;45.634;9.420;2022-12-29T02:10:36;99515.75;;;6.33;100.00
53270;BME280;39159;45.634;9.420;2022-12-29T02:13:01;99514.69;;;6.34;100.00
53270;BME280;39159;45.634;9.420;2022-12-29T02:16:01;99522.81;;;6.34;100.00
53270;BME280;39159;45.634;9.420;2022-12-29T02:27:31;99506.25;;;6.31;100.00
53270;BME280;39159;45.634;9.420;2022-12-29T02:30:35;99507.06;;;6.31;100.00
53270;BME280;39159;45.634;9.420;2022-12-29T02:39:02;99497.34;;;6.40;100.00
53270;BME280;39159;45.634;9.420;2022-12-29T02:41:40;99502.50;;;6.42;100.00
53270;BME280;39159;45.634;9.420;2022-12-29T02:44:13;99488.94;;;6.42;100.00
53270;BME280;39159;45.634;9.420;2022-12-29T02:46:53;99478.38;;;6.46;100.00
53270;BME280;39159;45.634;9.420;2022-12-29T02:49:35;99484.88;;;6.44;100.00
53270;BME280;39159;45.634;9.420;2022-12-29T02:52:20;99483.25;;;6.43;100.00
53270;BME280;39159;45.634;9.420;2022-12-29T02:54:49;99485.16;;;6.43;100.00
53270;BME280;39159;45.634;9.420;2022-12-29T02:59:48;99495.47;;;6.46;100.00
53270;BME280;39159;45.634;9.420;2022-12-29T03:08:28;99492.44;;;6.32;100.00
53270;BME280;39159;45.634;9.420;2022-12-29T03:13:49;99486.16;;;6.21;100.00
53270;BME280;39159;45.634;9.420;2022-12-29T03:16:49;99491.28;;;6.18;100.00
53270;BME280;39159;45.634;9.420;2022-12-29T03:19:28;99481.84;;;6.20;100.00
53270;BME280;39159;45.634;9.420;2022-12-29T03:22:05;99481.84;;;6.26;100.00
53270;BME280;39159;45.634;9.420;2022-12-29T03:27:42;99471.00;;;6.20;100.00
53270;BME280;39159;45.634;9.420;2022-12-29T03:30:10;99480.19;;;6.19;100.00
53270;BME280;39159;45.634;9.420;2022-12-29T03:32:40;99489.69;;;6.17;100.00
53270;BME280;39159;45.634;9.420;2022-12-29T03:35:10;99476.13;;;6.17;100.00
53270;BME280;39159;45.634;9.420;2022-12-29T03:37:53;99475.59;;;6.20;100.00
53270;BME280;39159;45.634;9.420;2022-12-29T03:40:22;99478.03;;;6.21;100.00
53270;BME280;39159;45.634;9.420;2022-12-29T03:42:49;99479.69;;;6.22;100.00
53270;BME280;39159;45.634;9.420;2022-12-29T03:45:14;99480.19;;;6.19;100.00
53270;BME280;39159;45.634;9.420;2022-12-29T03:47:40;99482.66;;;6.21;100.00
53270;BME280;39159;45.634;9.420;2022-12-29T03:50:06;99481.00;;;6.20;100.00
53270;BME280;39159;45.634;9.420;2022-12-29T03:52:33;99479.94;;;6.26;100.00
53270;BME280;39159;45.634;9.420;2022-12-29T03:54:59;99478.34;;;6.25;100.00
53270;BME280;39159;45.634;9.420;2022-12-29T03:57:24;99483.75;;;6.25;100.00
53270;BME280;39159;45.634;9.420;2022-12-29T03:59:50;99485.91;;;6.28;100.00
53270;BME280;39159;45.634;9.420;2022-12-29T04:02:15;99484.31;;;6.27;100.00
53270;BME280;39159;45.634;9.420;2022-12-29T04:04:40;99484.84;;;6.29;100.00
53270;BME280;39159;45.634;9.420;2022-12-29T04:07:06;99483.75;;;6.30;100.00
53270;BME280;39159;45.634;9.420;2022-12-29T04:09:31;99467.50;;;6.30;100.00
53270;BME280;39159;45.634;9.420;2022-12-29T04:11:57;99474.78;;;6.25;100.00
53270;BME280;39159;45.634;9.420;2022-12-29T04:14:22;99475.06;;;6.23;100.00
53270;BME280;39159;45.634;9.420;2022-12-29T04:16:48;99479.41;;;6.24;100.00
53270;BME280;39159;45.634;9.420;2022-12-29T04:19:13;99476.13;;;6.22;100.00
53270;BME280;39159;45.634;9.420;2022-12-29T04:21:38;99469.38;;;6.25;100.00
53270;BME280;39159;45.634;9.420;2022-12-29T04:24:05;99472.63;;;6.21;100.00
53270;BME280;39159;45.634;9.420;2022-12-29T04:26:32;99472.06;;;6.19;100.00
53270;BME280;39159;45.634;9.420;2022-12-29T04:28:57;99477.50;;;6.19;100.00
53270;BME280;39159;45.634;9.420;2022-12-29T04:31:23;99469.63;;;6.18;100.00
53270;BME280;39159;45.634;9.420;2022-12-29T04:33:48;99471.25;;;6.19;100.00
53270;BME280;39159;45.634;9.420;2022-12-29T04:36:13;99471.25;;;6.14;100.00
53270;BME280;39159;45.634;9.420;2022-12-29T04:38:39;99464.19;;;6.13;100.00
53270;BME280;39159;45.634;9.420;2022-12-29T04:41:04;99468.53;;;6.14;100.00
53270;BME280;39159;45.634;9.420;2022-12-29T04:43:30;99465.28;;;6.17;100.00
53270;BME280;39159;45.634;9.420;2022-12-29T04:45:55;99469.34;;;6.19;100.00
53270;BME280;39159;45.634;9.420;2022-12-29T04:48:21;99458.22;;;6.06;100.00
53270;BME280;39159;45.634;9.420;2022-12-29T04:50:48;99472.81;;;5.99;100.00
53270;BME280;39159;45.634;9.420;2022-12-29T04:53:15;99467.94;;;6.01;100.00
53270;BME280;39159;45.634;9.420;2022-12-29T04:55:41;99466.59;;;6.04;100.00
53270;BME280;39159;45.634;9.420;2022-12-29T04:58:06;99459.28;;;6.05;100.00
53270;BME280;39159;45.634;9.420;2022-12-29T05:00:32;99464.94;;;5.98;100.00
53270;BME280;39159;45.634;9.420;2022-12-29T05:02:57;99466.59;;;5.99;100.00
53270;BME280;39159;45.634;9.420;2022-12-29T05:05:23;99476.06;;;6.01;100.00
53270;BME280;39159;45.634;9.420;2022-12-29T05:07:48;99479.59;;;6.02;100.00
53270;BME280;39159;45.634;9.420;2022-12-29T05:10:13;99474.47;;;6.06;100.00
53270;BME280;39159;45.634;9.420;2022-12-29T05:12:39;99479.34;;;6.09;100.00
53270;BME280;39159;45.634;9.420;2022-12-29T05:15:06;99479.91;;;6.11;100.00
53270;BME280;39159;45.634;9.420;2022-12-29T05:17:32;99475.03;;;6.13;100.00
53270;BME280;39159;45.634;9.420;2022-12-29T05:19:58;99478.28;;;6.15;100.00
53270;BME280;39159;45.634;9.420;2022-12-29T05:22:24;99473.16;;;6.18;100.00
53270;BME280;39159;45.634;9.420;2022-12-29T05:24:49;99473.69;;;6.15;100.00
53270;BME280;39159;45.634;9.420;2022-12-29T05:27:15;99479.94;;;6.16;100.00
53270;BME280;39159;45.634;9.420;2022-12-29T05:29:40;99478.84;;;6.17;100.00
53270;BME280;39159;45.634;9.420;2022-12-29T05:32:06;99476.13;;;6.17;100.00
53270;BME280;39159;45.634;9.420;2022-12-29T05:34:31;99472.06;;;6.14;100.00
53270;BME280;39159;45.634;9.420;2022-12-29T05:36:57;99469.59;;;6.13;100.00
53270;BME280;39159;45.634;9.420;2022-12-29T05:39:22;99473.41;;;6.12;100.00
53270;BME280;39159;45.634;9.420;2022-12-29T05:41:48;99473.94;;;6.09;100.00
53270;BME280;39159;45.634;9.420;2022-12-29T05:44:13;99476.63;;;6.09;100.00
53270;BME280;39159;45.634;9.420;2022-12-29T05:46:39;99470.69;;;6.12;100.00
53270;BME280;39159;45.634;9.420;2022-12-29T05:49:05;99482.59;;;6.11;100.00
53270;BME280;39159;45.634;9.420;2022-12-29T05:51:30;99483.13;;;6.03;100.00
53270;BME280;39159;45.634;9.420;2022-12-29T05:53:56;99481.75;;;6.00;100.00
53270;BME280;39159;45.634;9.420;2022-12-29T05:56:22;99493.41;;;6.00;100.00
53270;BME280;39159;45.634;9.420;2022-12-29T05:58:47;99486.34;;;5.99;100.00
53270;BME280;39159;45.634;9.420;2022-12-29T06:01:12;99481.50;;;6.01;100.00
53270;BME280;39159;45.634;9.420;2022-12-29T06:03:38;99486.91;;;6.07;100.00
53270;BME280;39159;45.634;9.420;2022-12-29T06:06:04;99488.84;;;6.11;100.00
53270;BME280;39159;45.634;9.420;2022-12-29T06:08:29;99487.47;;;6.04;100.00
53270;BME280;39159;45.634;9.420;2022-12-29T06:10:55;99483.91;;;5.98;100.00
53270;BME280;39159;45.634;9.420;2022-12-29T06:13:20;99486.00;;;5.91;100.00
53270;BME280;39159;45.634;9.420;2022-12-29T06:15:48;99487.91;;;5.90;100.00
53270;BME280;39159;45.634;9.420;2022-12-29T06:18:14;99489.53;;;5.91;100.00
53270;BME280;39159;45.634;9.420;2022-12-29T06:20:39;99486.91;;;5.96;100.00
53270;BME280;39159;45.634;9.420;2022-12-29T06:23:05;99494.75;;;5.98;100.00
53270;BME280;39159;45.634;9.420;2022-12-29T06:25:30;99490.97;;;5.99;100.00
53270;BME280;39159;45.634;9.420;2022-12-29T06:27:58;99488.28;;;6.04;100.00
53270;BME280;39159;45.634;9.420;2022-12-29T06:30:23;99490.19;;;6.09;100.00
53270;BME280;39159;45.634;9.420;2022-12-29T06:32:48;99486.38;;;6.05;100.00
53270;BME280;39159;45.634;9.420;2022-12-29T06:35:14;99486.66;;;6.03;100.00
53270;BME280;39159;45.634;9.420;2022-12-29T06:37:40;99491.28;;;6.08;100.00
53270;BME280;39159;45.634;9.420;2022-12-29T06:40:05;99474.47;;;6.11;100.00
53270;BME280;39159;45.634;9.420;2022-12-29T06:42:31;99475.56;;;6.10;100.00
53270;BME280;39159;45.634;9.420;2022-12-29T06:44:56;99472.31;;;6.18;100.00
53270;BME280;39159;45.634;9.420;2022-12-29T06:47:24;99476.69;;;6.24;100.00
53270;BME280;39159;45.634;9.420;2022-12-29T06:49:50;99478.03;;;6.21;100.00
53270;BME280;39159;45.634;9.420;2022-12-29T06:52:15;99479.63;;;6.12;100.00
53270;BME280;39159;45.634;9.420;2022-12-29T06:54:41;99471.50;;;6.12;100.00
53270;BME280;39159;45.634;9.420;2022-12-29T06:57:06;99487.53;;;6.24;100.00
53270;BME280;39159;45.634;9.420;2022-12-29T06:59:32;99480.50;;;6.23;100.00
53270;BME280;39159;45.634;9.420;2022-12-29T07:01:57;99480.19;;;6.19;100.00
53270;BME280;39159;45.634;9.420;2022-12-29T07:04:23;99480.50;;;6.23;100.00
53270;BME280;39159;45.634;9.420;2022-12-29T07:06:48;99489.72;;;6.27;100.00
53270;BME280;39159;45.634;9.420;2022-12-29T07:09:14;99490.78;;;6.31;100.00
53270;BME280;39159;45.634;9.420;2022-12-29T07:11:40;99501.13;;;6.39;100.00
53270;BME280;39159;45.634;9.420;2022-12-29T07:14:05;99498.16;;;6.41;100.00
53270;BME280;39159;45.634;9.420;2022-12-29T07:16:31;99493.84;;;6.45;100.00
53270;BME280;39159;45.634;9.420;2022-12-29T07:18:57;99493.84;;;6.50;100.00
53270;BME280;39159;45.634;9.420;2022-12-29T07:21:24;99510.13;;;6.55;100.00
53270;BME280;39159;45.634;9.420;2022-12-29T07:23:50;99510.41;;;6.59;100.00
53270;BME280;39159;45.634;9.420;2022-12-29T07:26:15;99511.22;;;6.59;100.00
53270;BME280;39159;45.634;9.420;2022-12-29T07:28:43;99510.97;;;6.56;100.00
53270;BME280;39159;45.634;9.420;2022-12-29T07:31:20;99513.13;;;6.54;100.00
53270;BME280;39159;45.634;9.420;2022-12-29T07:33:46;99514.72;;;6.50;100.00
53270;BME280;39159;45.634;9.420;2022-12-29T07:36:12;99513.13;;;6.54;100.00
53270;BME280;39159;45.634;9.420;2022-12-29T07:38:38;99506.59;;;6.60;100.00
53270;BME280;39159;45.634;9.420;2022-12-29T07:41:03;99514.75;;;6.60;100.00
53270;BME280;39159;45.634;9.420;2022-12-29T07:43:31;99520.16;;;6.60;100.00
53270;BME280;39159;45.634;9.420;2022-12-29T07:45:56;99509.84;;;6.52;100.00
53270;BME280;39159;45.634;9.420;2022-12-29T07:48:22;99515.00;;;6.53;100.00
53270;BME280;39159;45.634;9.420;2022-12-29T07:50:48;99515.78;;;6.49;100.00
53270;BME280;39159;45.634;9.420;2022-12-29T07:53:14;99513.63;;;6.46;100.00
53270;BME280;39159;45.634;9.420;2022-12-29T07:55:39;99515.53;;;6.45;100.00
53270;BME280;39159;45.634;9.420;2022-12-29T07:58:05;99520.97;;;6.45;100.00
53270;BME280;39159;45.634;9.420;2022-12-29T08:00:31;99524.47;;;6.46;100.00
53270;BME280;39159;45.634;9.420;2022-12-29T08:02:56;99521.75;;;6.46;100.00
53270;BME280;39159;45.634;9.420;2022-12-29T08:05:21;99516.34;;;6.40;100.00
53270;BME280;39159;45.634;9.420;2022-12-29T08:07:47;99524.47;;;6.40;100.00
53270;BME280;39159;45.634;9.420;2022-12-29T08:10:14;99515.78;;;6.43;100.00
53270;BME280;39159;45.634;9.420;2022-12-29T08:12:40;99517.41;;;6.44;100.00
53270;BME280;39159;45.634;9.420;2022-12-29T08:15:08;99517.16;;;6.46;100.00
53270;BME280;39159;45.634;9.420;2022-12-29T08:17:34;99523.38;;;6.47;100.00
53270;BME280;39159;45.634;9.420;2022-12-29T08:20:00;99526.09;;;6.47;100.00
53270;BME280;39159;45.634;9.420;2022-12-29T08:22:26;99523.38;;;6.47;100.00
53270;BME280;39159;45.634;9.420;2022-12-29T08:24:51;99526.09;;;6.47;100.00
53270;BME280;39159;45.634;9.420;2022-12-29T08:27:17;99532.31;;;6.42;100.00
53270;BME280;39159;45.634;9.420;2022-12-29T08:29:43;99539.09;;;6.44;100.00
53270;BME280;39159;45.634;9.420;2022-12-29T08:32:09;99538.84;;;6.46;100.00
53270;BME280;39159;45.634;9.420;2022-12-29T08:34:35;99553.75;;;6.49;100.00
53270;BME280;39159;45.634;9.420;2022-12-29T08:37:00;99542.41;;;6.52;100.00
53270;BME280;39159;45.634;9.420;2022-12-29T08:39:26;99546.72;;;6.58;100.00
53270;BME280;39159;45.634;9.420;2022-12-29T08:41:51;99534.81;;;6.54;100.00
53270;BME280;39159;45.634;9.420;2022-12-29T08:44:17;99536.97;;;6.57;100.00
53270;BME280;39159;45.634;9.420;2022-12-29T08:46:42;99529.41;;;6.59;100.00
53270;BME280;39159;45.634;9.420;2022-12-29T08:49:08;99535.38;;;6.61;100.00
53270;BME280;39159;45.634;9.420;2022-12-29T08:51:33;99527.53;;;6.70;100.00
53270;BME280;39159;45.634;9.420;2022-12-29T08:53:59;99529.44;;;6.79;100.00
53270;BME280;39159;45.634;9.420;2022-12-29T08:56:25;99532.97;;;6.85;100.00
53270;BME280;39159;45.634;9.420;2022-12-29T08:58:51;99528.63;;;6.89;100.00
53270;BME280;39159;45.634;9.420;2022-12-29T09:01:17;99534.88;;;6.95;100.00
53270;BME280;39159;45.634;9.420;2022-12-29T09:03:42;99538.69;;;7.09;100.00
53270;BME280;39159;45.634;9.420;2022-12-29T09:06:08;99534.38;;;7.18;100.00
53270;BME280;39159;45.634;9.420;2022-12-29T09:08:33;99534.38;;;7.23;100.00
53270;BME280;39159;45.634;9.420;2022-12-29T09:11:25;99532.75;;;7.28;100.00
53270;BME280;39159;45.634;9.420;2022-12-29T09:13:52;99538.16;;;7.22;100.00
53270;BME280;39159;45.634;9.420;2022-12-29T09:16:19;99543.88;;;7.21;100.00
53270;BME280;39159;45.634;9.420;2022-12-29T09:18:45;99543.06;;;7.20;100.00
53270;BME280;39159;45.634;9.420;2022-12-29T09:21:11;99544.41;;;7.23;100.00
53270;BME280;39159;45.634;9.420;2022-12-29T09:23:37;99543.03;;;7.31;100.00
53270;BME280;39159;45.634;9.420;2022-12-29T09:26:03;99538.16;;;7.38;100.00
53270;BME280;39159;45.634;9.420;2022-12-29T09:28:29;99543.03;;;7.46;100.00
53270;BME280;39159;45.634;9.420;2022-12-29T09:30:55;99548.47;;;7.51;100.00
53270;BME280;39159;45.634;9.420;2022-12-29T09:33:21;99550.09;;;7.52;100.00
53270;BME280;39159;45.634;9.420;2022-12-29T09:35:55;99549.53;;;7.55;100.00
53270;BME280;39159;45.634;9.420;2022-12-29T09:38:21;99556.09;;;7.54;100.00
53270;BME280;39159;45.634;9.420;2022-12-29T09:40:51;99559.31;;;7.51;100.00
53270;BME280;39159;45.634;9.420;2022-12-29T09:46:26;99555.53;;;7.37;100.00
53270;BME280;39159;45.634;9.420;2022-12-29T09:49:38;99560.72;;;7.38;100.00
53270;BME280;39159;45.634;9.420;2022-12-29T09:52:16;99538.41;;;7.31;100.00
53270;BME280;39159;45.634;9.420;2022-12-29T09:55:01;99536.00;;;7.30;100.00
53270;BME280;39159;45.634;9.420;2022-12-29T09:57:47;99538.97;;;7.33;100.00
53270;BME280;39159;45.634;9.420;2022-12-29T10:03:15;99534.09;;;7.45;100.00
53270;BME280;39159;45.634;9.420;2022-12-29T10:08:42;99525.66;;;7.57;100.00
53270;BME280;39159;45.634;9.420;2022-12-29T10:12:12;99515.88;;;7.56;100.00
53270;BME280;39159;45.634;9.420;2022-12-29T10:19:51;99508.75;;;7.76;100.00
53270;BME280;39159;45.634;9.420;2022-12-29T10:25:37;99512.31;;;7.76;100.00
53270;BME280;39159;45.634;9.420;2022-12-29T10:28:10;99513.69;;;7.74;100.00
53270;BME280;39159;45.634;9.420;2022-12-29T10:30:41;99510.44;;;7.56;100.00
53270;BME280;39159;45.634;9.420;2022-12-29T10:33:11;99507.47;;;7.53;100.00
53270;BME280;39159;45.634;9.420;2022-12-29T10:35:40;99497.94;;;7.55;100.00
53270;BME280;39159;45.634;9.420;2022-12-29T10:38:28;99490.34;;;7.57;100.00
53270;BME280;39159;45.634;9.420;2022-12-29T10:41:00;99485.97;;;7.61;100.00
53270;BME280;39159;45.634;9.420;2022-12-29T10:43:39;99496.28;;;7.70;100.00
53270;BME280;39159;45.634;9.420;2022-12-29T10:46:14;99481.88;;;7.74;100.00
53270;BME280;39159;45.634;9.420;2022-12-29T10:48:41;99485.94;;;7.77;100.00
53270;BME280;39159;45.634;9.420;2022-12-29T10:51:10;99475.06;;;7.82;100.00
53270;BME280;39159;45.634;9.420;2022-12-29T10:53:52;99478.84;;;7.86;100.00
53270;BME280;39159;45.634;9.420;2022-12-29T10:59:36;99472.31;;;7.92;100.00
53270;BME280;39159;45.634;9.420;2022-12-29T11:02:24;99481.00;;;7.89;100.00
53270;BME280;39159;45.634;9.420;2022-12-29T11:05:14;99486.72;;;7.93;100.00
53270;BME280;39159;45.634;9.420;2022-12-29T11:07:47;99469.56;;;7.97;100.00
53270;BME280;39159;45.634;9.420;2022-12-29T11:10:30;99473.63;;;8.00;100.00
53270;BME280;39159;45.634;9.420;2022-12-29T11:13:01;99467.38;;;7.99;100.00
53270;BME280;39159;45.634;9.420;2022-12-29T11:15:38;99474.97;;;8.02;100.00
53270;BME280;39159;45.634;9.420;2022-12-29T11:18:03;99467.91;;;8.06;100.00
53270;BME280;39159;45.634;9.420;2022-12-29T11:22:58;99474.97;;;8.02;100.00
53270;BME280;39159;45.634;9.420;2022-12-29T11:25:25;99472.78;;;8.04;100.00
53270;BME280;39159;45.634;9.420;2022-12-29T11:30:29;99476.31;;;8.10;100.00
53270;BME280;39159;45.634;9.420;2022-12-29T11:32:56;99470.06;;;8.09;100.00
53270;BME280;39159;45.634;9.420;2022-12-29T11:35:33;99462.47;;;8.06;100.00
53270;BME280;39159;45.634;9.420;2022-12-29T11:38:00;99461.16;;;7.99;100.00
53270;BME280;39159;45.634;9.420;2022-12-29T11:40:27;99467.13;;;7.96;100.00
53270;BME280;39159;45.634;9.420;2022-12-29T11:42:59;99469.00;;;8.00;100.00
53270;BME280;39159;45.634;9.420;2022-12-29T11:45:31;99472.56;;;8.01;100.00
53270;BME280;39159;45.634;9.420;2022-12-29T11:48:19;99469.56;;;7.97;100.00
53270;BME280;39159;45.634;9.420;2022-12-29T11:50:53;99465.22;;;8.01;100.00
53270;BME280;39159;45.634;9.420;2022-12-29T11:53:38;99454.34;;;8.01;100.00
53270;BME280;39159;45.634;9.420;2022-12-29T11:56:17;99464.41;;;8.01;100.00
53270;BME280;39159;45.634;9.420;2022-12-29T11:58:45;99464.41;;;8.01;100.00
53270;BME280;39159;45.634;9.420;2022-12-29T12:01:26;99452.44;;;8.02;100.00
53270;BME280;39159;45.634;9.420;2022-12-29T12:04:03;99451.31;;;8.08;100.00
53270;BME280;39159;45.634;9.420;2022-12-29T12:06:32;99444.50;;;8.10;100.00
53270;BME280;39159;45.634;9.420;2022-12-29T12:12:23;99436.34;;;8.10;100.00
53270;BME280;39159;45.634;9.420;2022-12-29T12:14:59;99427.94;;;8.07;100.00
53270;BME280;39159;45.634;9.420;2022-12-29T12:17:31;99419.50;;;8.08;100.00
53270;BME280;39159;45.634;9.420;2022-12-29T12:26:20;99426.59;;;8.09;100.00
53270;BME280;39159;45.634;9.420;2022-12-29T12:28:54;99423.28;;;8.13;100.00
53270;BME280;39159;45.634;9.420;2022-12-29T12:34:03;99408.41;;;8.05;100.00
53270;BME280;39159;45.634;9.420;2022-12-29T12:39:39;99404.56;;;8.06;100.00
53270;BME280;39159;45.634;9.420;2022-12-29T12:58:08;99403.78;;;8.00;100.00
53270;BME280;39159;45.634;9.420;2022-12-29T13:12:18;99376.28;;;8.07;100.00
53270;BME280;39159;45.634;9.420;2022-12-29T13:28:31;99362.69;;;8.12;100.00
53270;BME280;39159;45.634;9.420;2022-12-29T13:31:32;99369.19;;;8.16;100.00
53270;BME280;39159;45.634;9.420;2022-12-29T13:36:48;99359.97;;;8.12;100.00
53270;BME280;39159;45.634;9.420;2022-12-29T13:39:19;99360.81;;;8.07;100.00
53270;BME280;39159;45.634;9.420;2022-12-29T13:41:55;99351.81;;;8.12;100.00
53270;BME280;39159;45.634;9.420;2022-12-29T13:44:26;99360.81;;;8.07;100.00
53270;BME280;39159;45.634;9.420;2022-12-29T13:46:54;99358.63;;;8.09;100.00
53270;BME280;39159;45.634;9.420;2022-12-29T13:49:22;99358.34;;;8.06;100.00
53270;BME280;39159;45.634;9.420;2022-12-29T13:51:56;99344.78;;;8.06;100.00
53270;BME280;39159;45.634;9.420;2022-12-29T13:57:05;99328.19;;;8.07;100.00
53270;BME280;39159;45.634;9.420;2022-12-29T14:02:25;99335.50;;;8.07;100.00
53270;BME280;39159;45.634;9.420;2022-12-29T14:07:21;99342.31;;;8.09;100.00
53270;BME280;39159;45.634;9.420;2022-12-29T14:09:47;99342.53;;;8.13;100.00
53270;BME280;39159;45.634;9.420;2022-12-29T14:17:37;99340.63;;;8.14;100.00
53270;BME280;39159;45.634;9.420;2022-12-29T14:20:06;99338.75;;;8.14;100.00
53270;BME280;39159;45.634;9.420;2022-12-29T14:23:15;99337.94;;;8.08;100.00
53270;BME280;39159;45.634;9.420;2022-12-29T14:28:46;99324.69;;;8.02;100.00
53270;BME280;39159;45.634;9.420;2022-12-29T14:33:41;99325.63;;;7.82;100.00
53270;BME280;39159;45.634;9.420;2022-12-29T14:36:42;99328.38;;;7.77;100.00
53270;BME280;39159;45.634;9.420;2022-12-29T14:39:35;99327.28;;;7.73;100.00
53270;BME280;39159;45.634;9.420;2022-12-29T14:42:13;99318.59;;;7.71;100.00
53270;BME280;39159;45.634;9.420;2022-12-29T14:44:52;99321.31;;;7.71;100.00
53270;BME280;39159;45.634;9.420;2022-12-29T14:50:03;99321.59;;;7.69;100.00
53270;BME280;39159;45.634;9.420;2022-12-29T14:52:30;99327.34;;;7.62;100.00
53270;BME280;39159;45.634;9.420;2022-12-29T14:54:59;99327.91;;;7.59;100.00
53270;BME280;39159;45.634;9.420;2022-12-29T14:57:30;99321.94;;;7.57;100.00
53270;BME280;39159;45.634;9.420;2022-12-29T15:00:22;99324.66;;;7.57;100.00
53270;BME280;39159;45.634;9.420;2022-12-29T15:02:54;99330.63;;;7.59;100.00
53270;BME280;39159;45.634;9.420;2022-12-29T15:05:31;99327.91;;;7.59;100.00
53270;BME280;39159;45.634;9.420;2022-12-29T15:07:59;99326.88;;;7.50;100.00
53270;BME280;39159;45.634;9.420;2022-12-29T15:10:27;99327.94;;;7.49;100.00
53270;BME280;39159;45.634;9.420;2022-12-29T15:13:03;99340.44;;;7.50;100.00
53270;BME280;39159;45.634;9.420;2022-12-29T15:15:29;99349.13;;;7.52;100.00
53270;BME280;39159;45.634;9.420;2022-12-29T15:20:43;99346.69;;;7.51;100.00
53270;BME280;39159;45.634;9.420;2022-12-29T15:23:12;99355.38;;;7.53;100.00
53270;BME280;39159;45.634;9.420;2022-12-29T15:25:54;99350.75;;;7.53;100.00
53270;BME280;39159;45.634;9.420;2022-12-29T15:28:21;99349.94;;;7.53;100.00
53270;BME280;39159;45.634;9.420;2022-12-29T15:33:26;99352.09;;;7.51;100.00
53270;BME280;39159;45.634;9.420;2022-12-29T15:35:55;99358.34;;;7.51;100.00
53270;BME280;39159;45.634;9.420;2022-12-29T15:38:27;99352.13;;;7.45;100.00
53270;BME280;39159;45.634;9.420;2022-12-29T15:41:00;99357.84;;;7.44;100.00
53270;BME280;39159;45.634;9.420;2022-12-29T15:46:15;99365.97;;;7.44;100.00